sensor_id;sensor_type;location;lat;lon;timestamp;pressure;altitude;pressure_sealevel;temperature;humidity
46942;BME280;32676;52.630;4.896;2023-04-28T00:00:44;101312.63;;;10.20;65.15
46942;BME280;32676;52.630;4.896;2023-04-28T00:03:11;101299.59;;;10.17;65.26
46942;BME280;32676;52.630;4.896;2023-04-28T00:05:38;101274.38;;;10.10;64.97
46942;BME280;32676;52.630;4.896;2023-04-28T00:08:05;101271.78;;;10.08;64.91
46942;BME280;32676;52.630;4.896;2023-04-28T00:10:31;101267.38;;;10.09;64.98
46942;BME280;32676;52.630;4.896;2023-04-28T00:12:59;101265.66;;;10.08;65.25
46942;BME280;32676;52.630;4.896;2023-04-28T00:15:25;101254.31;;;10.06;65.23
46942;BME280;32676;52.630;4.896;2023-04-28T00:17:52;101242.97;;;10.04;65.46
46942;BME280;32676;52.630;4.896;2023-04-28T00:20:19;101248.22;;;10.04;65.52
46942;BME280;32676;52.630;4.896;2023-04-28T00:22:46;101223.00;;;9.98;65.90
46942;BME280;32676;52.630;4.896;2023-04-28T00:25:13;101217.81;;;9.95;66.45
46942;BME280;32676;52.630;4.896;2023-04-28T00:27:39;101209.09;;;9.93;66.17
46942;BME280;32676;52.630;4.896;2023-04-28T00:30:08;101205.63;;;9.92;66.37
46942;BME280;32676;52.630;4.896;2023-04-28T00:32:34;101195.19;;;9.89;66.62
46942;BME280;32676;52.630;4.896;2023-04-28T00:35:01;101191.72;;;9.89;66.56
46942;BME280;32676;52.630;4.896;2023-04-28T00:37:27;101179.53;;;9.86;66.44
46942;BME280;32676;52.630;4.896;2023-04-28T00:39:54;101167.31;;;9.84;66.42
46942;BME280;32676;52.630;4.896;2023-04-28T00:42:20;101179.53;;;9.86;66.89
46942;BME280;32676;52.630;4.896;2023-04-28T00:44:47;101198.63;;;9.91;66.92
46942;BME280;32676;52.630;4.896;2023-04-28T00:47:14;101176.03;;;9.86;66.96
46942;BME280;32676;52.630;4.896;2023-04-28T00:49:42;101163.84;;;9.83;66.95
46942;BME280;32676;52.630;4.896;2023-04-28T00:52:09;101163.03;;;9.81;66.88
46942;BME280;32676;52.630;4.896;2023-04-28T00:54:35;101151.75;;;9.77;66.85
46942;BME280;32676;52.630;4.896;2023-04-28T00:57:02;101151.75;;;9.77;66.86
46942;BME280;32676;52.630;4.896;2023-04-28T00:59:29;101156.03;;;9.80;66.92
46942;BME280;32676;52.630;4.896;2023-04-28T01:01:55;101163.91;;;9.80;66.97
46942;BME280;32676;52.630;4.896;2023-04-28T01:04:23;101168.22;;;9.84;66.82
46942;BME280;32676;52.630;4.896;2023-04-28T01:06:50;101173.47;;;9.84;67.16
46942;BME280;32676;52.630;4.896;2023-04-28T01:09:17;101169.97;;;9.82;66.99
46942;BME280;32676;52.630;4.896;2023-04-28T01:11:43;101171.72;;;9.83;67.17
46942;BME280;32676;52.630;4.896;2023-04-28T01:14:10;101159.56;;;9.80;67.09
46942;BME280;32676;52.630;4.896;2023-04-28T01:16:36;101156.94;;;9.80;67.21
46942;BME280;32676;52.630;4.896;2023-04-28T01:19:03;101163.88;;;9.82;66.98
46942;BME280;32676;52.630;4.896;2023-04-28T01:21:33;101177.78;;;9.85;67.01
46942;BME280;32676;52.630;4.896;2023-04-28T01:24:01;101194.34;;;9.89;66.92
46942;BME280;32676;52.630;4.896;2023-04-28T01:26:27;101204.81;;;9.90;66.94
46942;BME280;32676;52.630;4.896;2023-04-28T01:28:53;101196.09;;;9.88;66.98
46942;BME280;32676;52.630;4.896;2023-04-28T01:31:20;101173.47;;;9.84;66.58
46942;BME280;32676;52.630;4.896;2023-04-28T01:33:46;101176.97;;;9.83;66.41
46942;BME280;32676;52.630;4.896;2023-04-28T01:36:12;101163.09;;;9.78;66.47
46942;BME280;32676;52.630;4.896;2023-04-28T01:38:38;101176.09;;;9.84;66.40
46942;BME280;32676;52.630;4.896;2023-04-28T01:41:06;101163.88;;;9.82;66.27
46942;BME280;32676;52.630;4.896;2023-04-28T01:43:32;101171.72;;;9.83;66.34
46942;BME280;32676;52.630;4.896;2023-04-28T01:45:59;101177.81;;;9.84;66.41
46942;BME280;32676;52.630;4.896;2023-04-28T01:48:25;101183.88;;;9.87;66.61
46942;BME280;32676;52.630;4.896;2023-04-28T01:50:51;101169.97;;;9.82;66.67
46942;BME280;32676;52.630;4.896;2023-04-28T01:53:18;101170.88;;;9.83;66.89
46942;BME280;32676;52.630;4.896;2023-04-28T01:55:44;101160.44;;;9.79;66.70
46942;BME280;32676;52.630;4.896;2023-04-28T01:58:12;101149.16;;;9.76;66.79
46942;BME280;32676;52.630;4.896;2023-04-28T02:00:38;101148.25;;;9.77;66.99
46942;BME280;32676;52.630;4.896;2023-04-28T02:03:04;101143.91;;;9.76;67.14
46942;BME280;32676;52.630;4.896;2023-04-28T02:05:31;101140.44;;;9.74;67.09
46942;BME280;32676;52.630;4.896;2023-04-28T02:07:57;101120.38;;;9.71;66.86
46942;BME280;32676;52.630;4.896;2023-04-28T02:10:23;101135.19;;;9.74;66.89
46942;BME280;32676;52.630;4.896;2023-04-28T02:12:50;101130.84;;;9.73;67.34
46942;BME280;32676;52.630;4.896;2023-04-28T02:15:17;101141.34;;;9.73;67.50
46942;BME280;32676;52.630;4.896;2023-04-28T02:17:44;101130.03;;;9.71;67.56
46942;BME280;32676;52.630;4.896;2023-04-28T02:20:11;101122.22;;;9.68;67.79
46942;BME280;32676;52.630;4.896;2023-04-28T02:22:38;101081.31;;;9.60;67.57
46942;BME280;32676;52.630;4.896;2023-04-28T02:25:05;101090.03;;;9.61;67.51
46942;BME280;32676;52.630;4.896;2023-04-28T02:27:32;101103.94;;;9.65;67.17
46942;BME280;32676;52.630;4.896;2023-04-28T02:30:00;101110.91;;;9.66;67.23
46942;BME280;32676;52.630;4.896;2023-04-28T02:32:28;101101.31;;;9.65;66.92
46942;BME280;32676;52.630;4.896;2023-04-28T02:34:55;101095.25;;;9.63;66.86
46942;BME280;32676;52.630;4.896;2023-04-28T02:37:22;101093.50;;;9.61;66.42
46942;BME280;32676;52.630;4.896;2023-04-28T02:39:48;101086.59;;;9.59;66.36
46942;BME280;32676;52.630;4.896;2023-04-28T02:42:14;101083.06;;;9.58;66.08
46942;BME280;32676;52.630;4.896;2023-04-28T02:44:41;101067.44;;;9.55;66.24
46942;BME280;32676;52.630;4.896;2023-04-28T02:47:07;101072.66;;;9.57;66.27
46942;BME280;32676;52.630;4.896;2023-04-28T02:49:35;101076.13;;;9.57;66.25
46942;BME280;32676;52.630;4.896;2023-04-28T02:52:01;101080.44;;;9.58;66.10
46942;BME280;32676;52.630;4.896;2023-04-28T02:54:28;101057.81;;;9.54;66.20
46942;BME280;32676;52.630;4.896;2023-04-28T02:56:54;101052.59;;;9.53;66.32
46942;BME280;32676;52.630;4.896;2023-04-28T02:59:20;101053.50;;;9.53;66.17
46942;BME280;32676;52.630;4.896;2023-04-28T03:01:47;101044.78;;;9.51;66.42
46942;BME280;32676;52.630;4.896;2023-04-28T03:04:14;101046.53;;;9.51;66.44
46942;BME280;32676;52.630;4.896;2023-04-28T03:06:41;101033.50;;;9.48;66.59
46942;BME280;32676;52.630;4.896;2023-04-28T03:09:08;101030.00;;;9.47;66.69
46942;BME280;32676;52.630;4.896;2023-04-28T03:11:35;101035.22;;;9.49;66.58
46942;BME280;32676;52.630;4.896;2023-04-28T03:14:02;101030.00;;;9.47;66.66
46942;BME280;32676;52.630;4.896;2023-04-28T03:16:29;101025.63;;;9.48;66.73
46942;BME280;32676;52.630;4.896;2023-04-28T03:18:55;101023.94;;;9.45;66.77
46942;BME280;32676;52.630;4.896;2023-04-28T03:21:21;101032.63;;;9.47;66.78
46942;BME280;32676;52.630;4.896;2023-04-28T03:23:49;101050.88;;;9.53;66.79
46942;BME280;32676;52.630;4.896;2023-04-28T03:26:15;101054.34;;;9.54;66.84
46942;BME280;32676;52.630;4.896;2023-04-28T03:28:42;101043.94;;;9.49;66.77
46942;BME280;32676;52.630;4.896;2023-04-28T03:31:08;101041.31;;;9.49;67.06
46942;BME280;32676;52.630;4.896;2023-04-28T03:33:35;101030.94;;;9.46;67.13
46942;BME280;32676;52.630;4.896;2023-04-28T03:36:01;101016.16;;;9.42;67.00
46942;BME280;32676;52.630;4.896;2023-04-28T03:38:27;101009.19;;;9.41;67.18
46942;BME280;32676;52.630;4.896;2023-04-28T03:40:55;101005.66;;;9.42;67.11
46942;BME280;32676;52.630;4.896;2023-04-28T03:43:21;101004.84;;;9.40;67.05
46942;BME280;32676;52.630;4.896;2023-04-28T03:45:48;101014.44;;;9.41;67.18
46942;BME280;32676;52.630;4.896;2023-04-28T03:48:14;100998.75;;;9.39;67.24
46942;BME280;32676;52.630;4.896;2023-04-28T03:50:40;101006.56;;;9.41;67.58
46942;BME280;32676;52.630;4.896;2023-04-28T03:53:09;100998.81;;;9.36;67.58
46942;BME280;32676;52.630;4.896;2023-04-28T03:55:35;100989.25;;;9.34;67.74
46942;BME280;32676;52.630;4.896;2023-04-28T03:58:03;100974.44;;;9.31;67.73
46942;BME280;32676;52.630;4.896;2023-04-28T04:00:29;100967.50;;;9.30;67.70
46942;BME280;32676;52.630;4.896;2023-04-28T04:02:56;100957.94;;;9.28;67.89
46942;BME280;32676;52.630;4.896;2023-04-28T04:05:22;100952.69;;;9.28;68.09
46942;BME280;32676;52.630;4.896;2023-04-28T04:07:48;100971.00;;;9.29;68.06
46942;BME280;32676;52.630;4.896;2023-04-28T04:10:14;100959.66;;;9.29;68.22
46942;BME280;32676;52.630;4.896;2023-04-28T04:12:41;100961.41;;;9.30;68.20
46942;BME280;32676;52.630;4.896;2023-04-28T04:15:09;100968.34;;;9.31;68.47
46942;BME280;32676;52.630;4.896;2023-04-28T04:17:36;100972.69;;;9.33;68.38
46942;BME280;32676;52.630;4.896;2023-04-28T04:20:02;100984.03;;;9.34;68.45
46942;BME280;32676;52.630;4.896;2023-04-28T04:22:29;100983.09;;;9.35;68.49
46942;BME280;32676;52.630;4.896;2023-04-28T04:24:55;100994.44;;;9.37;68.56
46942;BME280;32676;52.630;4.896;2023-04-28T04:27:21;101003.97;;;9.39;68.51
46942;BME280;32676;52.630;4.896;2023-04-28T04:29:48;101004.88;;;9.38;68.71
46942;BME280;32676;52.630;4.896;2023-04-28T04:32:15;100996.22;;;9.35;68.68
46942;BME280;32676;52.630;4.896;2023-04-28T04:34:42;100990.09;;;9.36;68.69
46942;BME280;32676;52.630;4.896;2023-04-28T04:37:08;101001.41;;;9.38;68.49
46942;BME280;32676;52.630;4.896;2023-04-28T04:39:35;101001.41;;;9.38;68.66
46942;BME280;32676;52.630;4.896;2023-04-28T04:42:01;101003.13;;;9.39;68.83
46942;BME280;32676;52.630;4.896;2023-04-28T04:44:28;101011.00;;;9.39;68.81
46942;BME280;32676;52.630;4.896;2023-04-28T04:46:54;101007.50;;;9.38;68.81
46942;BME280;32676;52.630;4.896;2023-04-28T04:49:22;101015.31;;;9.40;68.83
46942;BME280;32676;52.630;4.896;2023-04-28T04:51:48;101017.06;;;9.41;68.95
46942;BME280;32676;52.630;4.896;2023-04-28T04:54:14;101016.16;;;9.42;68.79
46942;BME280;32676;52.630;4.896;2023-04-28T04:56:41;101037.06;;;9.45;68.70
46942;BME280;32676;52.630;4.896;2023-04-28T04:59:07;101042.25;;;9.48;68.88
46942;BME280;32676;52.630;4.896;2023-04-28T05:01:35;101051.00;;;9.47;68.67
46942;BME280;32676;52.630;4.896;2023-04-28T05:04:03;101063.13;;;9.51;68.95
46942;BME280;32676;52.630;4.896;2023-04-28T05:06:30;101074.47;;;9.53;69.00
46942;BME280;32676;52.630;4.896;2023-04-28T05:08:57;101077.94;;;9.55;69.10
46942;BME280;32676;52.630;4.896;2023-04-28T05:11:23;101091.88;;;9.57;69.20
46942;BME280;32676;52.630;4.896;2023-04-28T05:13:50;101104.00;;;9.61;69.23
46942;BME280;32676;52.630;4.896;2023-04-28T05:16:16;101119.69;;;9.65;69.23
46942;BME280;32676;52.630;4.896;2023-04-28T05:18:42;101098.75;;;9.61;69.17
46942;BME280;32676;52.630;4.896;2023-04-28T05:21:09;101107.44;;;9.64;69.30
46942;BME280;32676;52.630;4.896;2023-04-28T05:23:37;101106.63;;;9.61;69.15
46942;BME280;32676;52.630;4.896;2023-04-28T05:26:03;101100.50;;;9.63;69.19
46942;BME280;32676;52.630;4.896;2023-04-28T05:28:30;101127.53;;;9.66;69.03
46942;BME280;32676;52.630;4.896;2023-04-28T05:30:56;101134.44;;;9.69;68.98
46942;BME280;32676;52.630;4.896;2023-04-28T05:33:23;101125.75;;;9.67;68.67
46942;BME280;32676;52.630;4.896;2023-04-28T05:35:49;101123.13;;;9.67;68.54
46942;BME280;32676;52.630;4.896;2023-04-28T05:38:16;101113.59;;;9.64;68.41
46942;BME280;32676;52.630;4.896;2023-04-28T05:40:43;101119.69;;;9.65;68.21
46942;BME280;32676;52.630;4.896;2023-04-28T05:43:10;101131.81;;;9.69;68.39
46942;BME280;32676;52.630;4.896;2023-04-28T05:45:36;101139.66;;;9.70;68.41
46942;BME280;32676;52.630;4.896;2023-04-28T05:48:03;101153.56;;;9.74;68.44
46942;BME280;32676;52.630;4.896;2023-04-28T05:50:29;101177.13;;;9.77;68.81
46942;BME280;32676;52.630;4.896;2023-04-28T05:52:56;101173.59;;;9.78;68.95
46942;BME280;32676;52.630;4.896;2023-04-28T05:55:23;101197.97;;;9.83;69.05
46942;BME280;32676;52.630;4.896;2023-04-28T05:57:52;101211.03;;;9.86;69.35
46942;BME280;32676;52.630;4.896;2023-04-28T06:00:18;101225.81;;;9.90;69.25
46942;BME280;32676;52.630;4.896;2023-04-28T06:02:45;101238.00;;;9.91;69.26
46942;BME280;32676;52.630;4.896;2023-04-28T06:05:12;101239.75;;;9.92;69.47
46942;BME280;32676;52.630;4.896;2023-04-28T06:07:38;101237.09;;;9.94;69.39
46942;BME280;32676;52.630;4.896;2023-04-28T06:10:05;101234.50;;;9.92;69.16
46942;BME280;32676;52.630;4.896;2023-04-28T06:12:31;101237.13;;;9.92;69.05
46942;BME280;32676;52.630;4.896;2023-04-28T06:14:59;101243.19;;;9.94;68.92
46942;BME280;32676;52.630;4.896;2023-04-28T06:17:27;101253.63;;;9.97;68.74
46942;BME280;32676;52.630;4.896;2023-04-28T06:19:55;101257.09;;;9.99;68.69
46942;BME280;32676;52.630;4.896;2023-04-28T06:22:23;101279.75;;;10.04;68.52
46942;BME280;32676;52.630;4.896;2023-04-28T06:24:49;101271.03;;;10.02;68.16
46942;BME280;32676;52.630;4.896;2023-04-28T06:27:15;101273.66;;;10.02;67.95
46942;BME280;32676;52.630;4.896;2023-04-28T06:29:42;101271.03;;;10.02;68.00
46942;BME280;32676;52.630;4.896;2023-04-28T06:32:09;101288.44;;;10.06;68.08
46942;BME280;32676;52.630;4.896;2023-04-28T06:34:35;101305.88;;;10.10;67.85
46942;BME280;32676;52.630;4.896;2023-04-28T06:37:02;101344.25;;;10.17;67.81
46942;BME280;32676;52.630;4.896;2023-04-28T06:39:28;101368.56;;;10.25;67.81
46942;BME280;32676;52.630;4.896;2023-04-28T06:41:55;101385.97;;;10.29;67.52
46942;BME280;32676;52.630;4.896;2023-04-28T06:44:21;101420.84;;;10.37;67.33
46942;BME280;32676;52.630;4.896;2023-04-28T06:46:47;101448.72;;;10.45;66.61
46942;BME280;32676;52.630;4.896;2023-04-28T06:49:15;101466.13;;;10.49;67.00
46942;BME280;32676;52.630;4.896;2023-04-28T06:51:41;101468.75;;;10.50;66.65
46942;BME280;32676;52.630;4.896;2023-04-28T06:54:08;101480.94;;;10.53;66.35
46942;BME280;32676;52.630;4.896;2023-04-28T06:56:35;101499.22;;;10.59;66.76
46942;BME280;32676;52.630;4.896;2023-04-28T06:59:01;101537.63;;;10.66;66.58
46942;BME280;32676;52.630;4.896;2023-04-28T07:01:28;101575.06;;;10.76;66.70
46942;BME280;32676;52.630;4.896;2023-04-28T07:03:55;101590.78;;;10.79;66.52
46942;BME280;32676;52.630;4.896;2023-04-28T07:06:22;101610.81;;;10.85;66.04
46942;BME280;32676;52.630;4.896;2023-04-28T07:08:48;101619.53;;;10.87;65.98
46942;BME280;32676;52.630;4.896;2023-04-28T07:11:15;101623.91;;;10.88;65.58
46942;BME280;32676;52.630;4.896;2023-04-28T07:13:42;101634.34;;;10.91;65.38
46942;BME280;32676;52.630;4.896;2023-04-28T07:16:10;101660.56;;;10.95;65.43
46942;BME280;32676;52.630;4.896;2023-04-28T07:18:36;101694.59;;;11.03;65.45
46942;BME280;32676;52.630;4.896;2023-04-28T07:21:02;101719.00;;;11.11;65.68
46942;BME280;32676;52.630;4.896;2023-04-28T07:23:30;101763.47;;;11.22;65.56
46942;BME280;32676;52.630;4.896;2023-04-28T07:25:56;101816.75;;;11.35;65.40
46942;BME280;32676;52.630;4.896;2023-04-28T07:28:23;101828.09;;;11.37;65.18
46942;BME280;32676;52.630;4.896;2023-04-28T07:30:49;101851.66;;;11.43;64.92
46942;BME280;32676;52.630;4.896;2023-04-28T07:33:16;101866.50;;;11.46;64.73
46942;BME280;32676;52.630;4.896;2023-04-28T07:35:42;101879.59;;;11.50;64.49
46942;BME280;32676;52.630;4.896;2023-04-28T07:38:08;101873.50;;;11.48;64.40
46942;BME280;32676;52.630;4.896;2023-04-28T07:40:36;101868.22;;;11.48;64.42
46942;BME280;32676;52.630;4.896;2023-04-28T07:43:02;101867.31;;;11.49;64.72
46942;BME280;32676;52.630;4.896;2023-04-28T07:45:28;101858.66;;;11.44;64.90
46942;BME280;32676;52.630;4.896;2023-04-28T07:47:55;101835.91;;;11.40;65.16
46942;BME280;32676;52.630;4.896;2023-04-28T07:50:21;101823.72;;;11.36;65.26
46942;BME280;32676;52.630;4.896;2023-04-28T07:52:47;101803.63;;;11.32;65.15
46942;BME280;32676;52.630;4.896;2023-04-28T07:55:14;101811.50;;;11.33;65.26
46942;BME280;32676;52.630;4.896;2023-04-28T07:57:41;101801.00;;;11.32;65.74
46942;BME280;32676;52.630;4.896;2023-04-28T08:00:08;101791.38;;;11.29;65.49
46942;BME280;32676;52.630;4.896;2023-04-28T08:02:35;101807.97;;;11.33;65.70
46942;BME280;32676;52.630;4.896;2023-04-28T08:05:01;101814.13;;;11.33;65.89
46942;BME280;32676;52.630;4.896;2023-04-28T08:07:28;101815.84;;;11.36;66.38
46942;BME280;32676;52.630;4.896;2023-04-28T08:09:54;101802.72;;;11.33;66.42
46942;BME280;32676;52.630;4.896;2023-04-28T08:12:20;101810.59;;;11.34;66.44
46942;BME280;32676;52.630;4.896;2023-04-28T08:14:48;101810.59;;;11.34;66.61
46942;BME280;32676;52.630;4.896;2023-04-28T08:17:14;101811.47;;;11.35;66.45
46942;BME280;32676;52.630;4.896;2023-04-28T08:19:40;101809.72;;;11.34;66.79
46942;BME280;32676;52.630;4.896;2023-04-28T08:22:10;101816.75;;;11.35;67.10
46942;BME280;32676;52.630;4.896;2023-04-28T08:24:36;101825.38;;;11.40;67.35
46942;BME280;32676;52.630;4.896;2023-04-28T08:27:02;101839.38;;;11.42;67.50
46942;BME280;32676;52.630;4.896;2023-04-28T08:29:29;101866.47;;;11.47;67.30
46942;BME280;32676;52.630;4.896;2023-04-28T08:31:57;101855.13;;;11.45;67.04
46942;BME280;32676;52.630;4.896;2023-04-28T08:34:23;101851.66;;;11.43;67.20
46942;BME280;32676;52.630;4.896;2023-04-28T08:36:50;101853.41;;;11.44;67.70
46942;BME280;32676;52.630;4.896;2023-04-28T08:39:16;101867.31;;;11.49;67.51
46942;BME280;32676;52.630;4.896;2023-04-28T08:41:43;101890.06;;;11.53;67.81
46942;BME280;32676;52.630;4.896;2023-04-28T08:44:10;101906.69;;;11.57;67.76
46942;BME280;32676;52.630;4.896;2023-04-28T08:46:37;101923.28;;;11.61;67.69
46942;BME280;32676;52.630;4.896;2023-04-28T08:49:06;101951.22;;;11.68;68.24
46942;BME280;32676;52.630;4.896;2023-04-28T08:51:40;101984.38;;;11.78;68.44
46942;BME280;32676;52.630;4.896;2023-04-28T08:54:09;102024.63;;;11.86;68.81
46942;BME280;32676;52.630;4.896;2023-04-28T08:56:37;102050.88;;;11.93;69.77
46942;BME280;32676;52.630;4.896;2023-04-28T08:59:03;102063.06;;;11.97;70.34
46942;BME280;32676;52.630;4.896;2023-04-28T09:01:30;102075.31;;;12.01;70.92
46942;BME280;32676;52.630;4.896;2023-04-28T09:03:56;102066.53;;;11.99;71.66
46942;BME280;32676;52.630;4.896;2023-04-28T09:06:26;102045.59;;;11.93;72.00
46942;BME280;32676;52.630;4.896;2023-04-28T09:08:56;102042.13;;;11.90;72.28
46942;BME280;32676;52.630;4.896;2023-04-28T09:11:22;102033.34;;;11.88;72.75
46942;BME280;32676;52.630;4.896;2023-04-28T09:13:49;102033.34;;;11.88;73.68
46942;BME280;32676;52.630;4.896;2023-04-28T09:16:15;102033.34;;;11.88;73.84
46942;BME280;32676;52.630;4.896;2023-04-28T09:18:44;102043.88;;;11.92;74.50
46942;BME280;32676;52.630;4.896;2023-04-28T09:21:20;102052.63;;;11.94;75.08
46942;BME280;32676;52.630;4.896;2023-04-28T09:23:48;102075.38;;;11.98;75.15
46942;BME280;32676;52.630;4.896;2023-04-28T09:26:14;102068.34;;;11.97;75.38
46942;BME280;32676;52.630;4.896;2023-04-28T09:28:41;102075.31;;;12.01;75.89
46942;BME280;32676;52.630;4.896;2023-04-28T09:31:20;102065.72;;;11.97;75.88
46942;BME280;32676;52.630;4.896;2023-04-28T09:33:55;102052.63;;;11.94;76.24
46942;BME280;32676;52.630;4.896;2023-04-28T09:36:24;102054.34;;;11.95;76.96
46942;BME280;32676;52.630;4.896;2023-04-28T09:38:52;102042.13;;;11.90;76.79
46942;BME280;32676;52.630;4.896;2023-04-28T09:41:22;102037.72;;;11.89;77.17
46942;BME280;32676;52.630;4.896;2023-04-28T09:44:08;102031.59;;;11.87;77.37
46942;BME280;32676;52.630;4.896;2023-04-28T09:46:35;102043.88;;;11.92;77.44
46942;BME280;32676;52.630;4.896;2023-04-28T09:49:01;102054.34;;;11.95;77.62
46942;BME280;32676;52.630;4.896;2023-04-28T09:51:27;102056.13;;;11.93;78.25
46942;BME280;32676;52.630;4.896;2023-04-28T09:53:55;102080.59;;;12.01;77.87
46942;BME280;32676;52.630;4.896;2023-04-28T09:56:24;102081.47;;;12.00;77.77
46942;BME280;32676;52.630;4.896;2023-04-28T09:58:52;102089.31;;;12.03;78.01
46942;BME280;32676;52.630;4.896;2023-04-28T10:01:18;102095.47;;;12.03;78.17
46942;BME280;32676;52.630;4.896;2023-04-28T10:03:45;102105.94;;;12.06;78.14
46942;BME280;32676;52.630;4.896;2023-04-28T10:06:13;102133.03;;;12.13;78.40
46942;BME280;32676;52.630;4.896;2023-04-28T10:08:39;102160.19;;;12.18;78.03
46942;BME280;32676;52.630;4.896;2023-04-28T10:11:07;102197.75;;;12.29;78.46
46942;BME280;32676;52.630;4.896;2023-04-28T10:13:33;102196.88;;;12.29;78.44
46942;BME280;32676;52.630;4.896;2023-04-28T10:16:00;102231.00;;;12.37;78.34
46942;BME280;32676;52.630;4.896;2023-04-28T10:18:27;102267.75;;;12.46;78.57
46942;BME280;32676;52.630;4.896;2023-04-28T10:20:56;102322.94;;;12.57;78.76
46942;BME280;32676;52.630;4.896;2023-04-28T10:26:11;102338.72;;;12.61;79.07
46942;BME280;32676;52.630;4.896;2023-04-28T10:28:43;102323.84;;;12.57;79.25
46942;BME280;32676;52.630;4.896;2023-04-28T10:31:10;102328.22;;;12.58;79.84
46942;BME280;32676;52.630;4.896;2023-04-28T10:33:37;102323.84;;;12.57;80.38
46942;BME280;32676;52.630;4.896;2023-04-28T10:36:04;102351.84;;;12.64;80.47
46942;BME280;32676;52.630;4.896;2023-04-28T10:38:31;102386.88;;;12.73;80.88
46942;BME280;32676;52.630;4.896;2023-04-28T10:40:58;102407.00;;;12.78;80.74
46942;BME280;32676;52.630;4.896;2023-04-28T10:43:37;102421.94;;;12.81;81.24
46942;BME280;32676;52.630;4.896;2023-04-28T10:46:05;102449.97;;;12.88;81.11
46942;BME280;32676;52.630;4.896;2023-04-28T10:51:31;102458.72;;;12.90;80.68
46942;BME280;32676;52.630;4.896;2023-04-28T10:54:14;102495.53;;;12.98;80.85
46942;BME280;32676;52.630;4.896;2023-04-28T10:56:41;102500.78;;;12.99;80.93
46942;BME280;32676;52.630;4.896;2023-04-28T10:59:28;102523.56;;;13.06;81.22
46942;BME280;32676;52.630;4.896;2023-04-28T11:01:58;102539.31;;;13.10;81.12
46942;BME280;32676;52.630;4.896;2023-04-28T11:07:25;102569.13;;;13.16;81.65
46942;BME280;32676;52.630;4.896;2023-04-28T11:09:51;102582.31;;;13.19;81.80
46942;BME280;32676;52.630;4.896;2023-04-28T11:12:18;102609.47;;;13.26;81.78
46942;BME280;32676;52.630;4.896;2023-04-28T11:14:45;102629.66;;;13.30;82.29
46942;BME280;32676;52.630;4.896;2023-04-28T11:17:13;102645.44;;;13.36;82.52
46942;BME280;32676;52.630;4.896;2023-04-28T11:19:43;102667.41;;;13.38;82.49
46942;BME280;32676;52.630;4.896;2023-04-28T11:22:13;102680.53;;;13.44;82.68
46942;BME280;32676;52.630;4.896;2023-04-28T11:24:39;102710.34;;;13.51;82.42
46942;BME280;32676;52.630;4.896;2023-04-28T11:27:06;102720.91;;;13.53;82.45
46942;BME280;32676;52.630;4.896;2023-04-28T11:29:33;102720.03;;;13.54;82.29
46942;BME280;32676;52.630;4.896;2023-04-28T11:32:01;102732.31;;;13.55;82.26
46942;BME280;32676;52.630;4.896;2023-04-28T11:34:27;102747.19;;;13.60;82.81
46942;BME280;32676;52.630;4.896;2023-04-28T11:36:54;102762.16;;;13.63;82.66
46942;BME280;32676;52.630;4.896;2023-04-28T11:39:24;102769.16;;;13.64;82.84
46942;BME280;32676;52.630;4.896;2023-04-28T11:41:52;102795.53;;;13.70;82.98
46942;BME280;32676;52.630;4.896;2023-04-28T11:44:19;102827.97;;;13.80;82.76
46942;BME280;32676;52.630;4.896;2023-04-28T11:46:46;102862.22;;;13.88;82.86
46942;BME280;32676;52.630;4.896;2023-04-28T11:49:16;102887.72;;;13.92;83.00
46942;BME280;32676;52.630;4.896;2023-04-28T11:51:42;102909.66;;;13.97;82.78
46942;BME280;32676;52.630;4.896;2023-04-28T11:54:12;102921.97;;;14.01;83.16
46942;BME280;32676;52.630;4.896;2023-04-28T11:56:39;102941.28;;;14.06;83.04
46942;BME280;32676;52.630;4.896;2023-04-28T11:59:06;102963.22;;;14.11;82.88
46942;BME280;32676;52.630;4.896;2023-04-28T12:01:33;102979.06;;;14.14;82.81
46942;BME280;32676;52.630;4.896;2023-04-28T12:04:01;102976.41;;;14.14;82.72
46942;BME280;32676;52.630;4.896;2023-04-28T12:06:29;102974.66;;;14.13;82.57
46942;BME280;32676;52.630;4.896;2023-04-28T12:08:56;102977.28;;;14.15;82.61
46942;BME280;32676;52.630;4.896;2023-04-28T12:11:28;102956.22;;;14.10;82.88
46942;BME280;32676;52.630;4.896;2023-04-28T12:14:04;102953.56;;;14.10;82.63
46942;BME280;32676;52.630;4.896;2023-04-28T12:16:37;102943.03;;;14.07;83.27
46942;BME280;32676;52.630;4.896;2023-04-28T12:19:07;102925.47;;;14.03;82.96
46942;BME280;32676;52.630;4.896;2023-04-28T12:21:36;102925.47;;;14.03;83.27
46942;BME280;32676;52.630;4.896;2023-04-28T12:24:13;102925.47;;;14.03;83.32
46942;BME280;32676;52.630;4.896;2023-04-28T12:26:40;102931.59;;;14.05;83.42
46942;BME280;32676;52.630;4.896;2023-04-28T12:29:06;102920.16;;;14.03;83.35
46942;BME280;32676;52.630;4.896;2023-04-28T12:31:46;102913.13;;;14.02;83.47
46942;BME280;32676;52.630;4.896;2023-04-28T12:34:12;102881.50;;;13.96;83.38
46942;BME280;32676;52.630;4.896;2023-04-28T12:36:40;102878.00;;;13.94;83.67
46942;BME280;32676;52.630;4.896;2023-04-28T12:39:11;102869.22;;;13.92;83.77
46942;BME280;32676;52.630;4.896;2023-04-28T12:41:40;102877.09;;;13.93;83.51
46942;BME280;32676;52.630;4.896;2023-04-28T12:44:06;102808.03;;;13.56;83.55
46942;BME280;32676;52.630;4.896;2023-04-28T12:46:33;102857.81;;;13.88;83.84
46942;BME280;32676;52.630;4.896;2023-04-28T12:48:59;102870.94;;;13.93;83.86
46942;BME280;32676;52.630;4.896;2023-04-28T12:51:25;102874.50;;;13.92;83.70
46942;BME280;32676;52.630;4.896;2023-04-28T12:53:55;102878.88;;;13.94;83.58
46942;BME280;32676;52.630;4.896;2023-04-28T12:56:21;102878.00;;;13.94;83.61
46942;BME280;32676;52.630;4.896;2023-04-28T12:58:48;102865.66;;;13.93;83.49
46942;BME280;32676;52.630;4.896;2023-04-28T13:01:15;102859.53;;;13.91;83.57
46942;BME280;32676;52.630;4.896;2023-04-28T13:03:41;102872.72;;;13.94;83.37